Salmon Cove, Canada
Current Conditions -  °F | °C
As of 10:00 AM on Wednesday 22 Oct 2014 (Local Time) from CYYT Reporting Station
Broken Clouds Broken Clouds  
Wind Chill: 41°   Ceiling: 14000
Heat Index: 45°   Visibility: 15mi
Dew Point: 41°   Wind: 6mph
Humidity: 87%   Direction: 330°NNW
Pressure: 30.43"   Gusts: NA
Location:  47.78°N, 53.17°W
Report Text: CYYT 221200Z 33005KT 15SM FEW030 BKN140 07/05 A3043 RMK CU2AC4 SLP308
Loading
Personal Weather Stations






























Interactive Weather Map
Tropical Storm Tracking
New forecast layout! Learn more

10-Day Weather Forecast

Advertisements
Track Severe Weather on mobile